Time;durP1;ratioP1;P1;durP2;ratioP2;P2;SDS_P1;SDS_P2;PMS_P1;PMS_P2;Temp;Humidity;BMP_temperature;BMP_pressure;BME280_temperature;BME280_humidity;BME280_pressure;Samples;Min_cycle;Max_cycle;Signal;HPM_P1;HPM_P2
2021/01/14 00:00:53;;;;;;;30.02;7.45;;;;;;;4.03;100.00;101138.34;5047583;28;20037;-73
2021/01/14 00:03:18;;;;;;;20.67;6.70;;;;;;;3.97;100.00;101139.41;5040188;28;20070;-72
2021/01/14 00:05:44;;;;;;;28.27;6.60;;;;;;;3.96;100.00;101142.09;5039818;28;20047;-72
2021/01/14 00:08:10;;;;;;;19.35;4.95;;;;;;;3.93;100.00;101132.44;5040197;28;20052;-72
2021/01/14 00:10:36;;;;;;;20.40;5.10;;;;;;;3.89;100.00;101137.91;5040297;28;20071;-72
2021/01/14 00:13:06;;;;;;;19.23;5.63;;;;;;;3.97;100.00;101142.06;5045232;28;20036;-73
2021/01/14 00:15:31;;;;;;;12.68;4.32;;;;;;;3.88;100.00;101158.28;5043462;28;20025;-72
2021/01/14 00:17:57;;;;;;;26.83;4.90;;;;;;;3.82;100.00;101169.09;5036960;28;20083;-73
2021/01/14 00:20:23;;;;;;;18.58;4.25;;;;;;;3.91;100.00;101166.13;5037109;28;20043;-72
2021/01/14 00:22:48;;;;;;;18.00;4.43;;;;;;;3.85;100.00;101168.97;5040437;28;20185;-72
2021/01/14 00:25:16;;;;;;;13.82;4.13;;;;;;;3.88;100.00;101181.31;5038890;28;20025;-72
2021/01/14 00:27:41;;;;;;;13.05;4.13;;;;;;;3.85;100.00;101176.94;5062623;28;20055;-73
2021/01/14 00:30:10;;;;;;;28.02;3.97;;;;;;;3.85;100.00;101178.72;5056904;28;20490;-72
2021/01/14 00:32:36;;;;;;;19.48;3.78;;;;;;;3.85;100.00;101178.72;5056649;28;20036;-71
2021/01/14 00:35:02;;;;;;;19.25;2.70;;;;;;;3.94;100.00;101167.84;5043747;28;20040;-71
2021/01/14 00:40:12;;;;;;;18.15;2.67;;;;;;;3.97;100.00;101167.75;5056939;28;20040;-72
2021/01/14 00:42:37;;;;;;;18.38;3.03;;;;;;;3.89;100.00;101164.47;5045353;28;21499;-72
2021/01/14 00:45:04;;;;;;;16.73;2.97;;;;;;;3.84;100.00;101171.66;5038701;28;20094;-71
2021/01/14 00:47:37;;;;;;;16.98;2.42;;;;;;;3.90;100.00;101164.41;5038571;28;20040;-72
2021/01/14 00:50:06;;;;;;;17.07;2.50;;;;;;;3.97;100.00;101168.63;5037671;28;20503;-73
2021/01/14 00:52:31;;;;;;;13.50;2.20;;;;;;;3.82;100.00;101170.88;5038689;28;20635;-72
2021/01/14 00:54:57;;;;;;;15.68;2.20;;;;;;;3.75;100.00;101172.81;5044361;28;20035;-72
2021/01/14 00:57:22;;;;;;;17.30;2.15;;;;;;;3.82;100.00;101179.72;5047681;28;20553;-72
2021/01/14 00:59:48;;;;;;;16.92;2.70;;;;;;;3.81;100.00;101183.28;5038352;28;20037;-73
2021/01/14 01:02:13;;;;;;;18.80;2.40;;;;;;;3.76;100.00;101184.31;5039812;28;20464;-72
2021/01/14 01:04:42;;;;;;;20.92;2.50;;;;;;;3.69;100.00;101188.94;5036520;28;20044;-72
2021/01/14 01:07:07;;;;;;;14.07;2.05;;;;;;;3.66;100.00;101194.31;5037004;28;20051;-72
2021/01/14 01:09:33;;;;;;;17.00;1.98;;;;;;;3.77;100.00;101197.53;5043765;28;20036;-71
2021/01/14 01:11:58;;;;;;;9.05;1.98;;;;;;;3.70;100.00;101195.13;5039432;28;20083;-72
2021/01/14 01:14:24;;;;;;;17.98;2.08;;;;;;;3.74;98.60;101181.69;5038929;28;20368;-71
2021/01/14 01:16:53;;;;;;;13.05;2.47;;;;;;;3.75;98.49;101183.44;5038896;28;20480;-72
2021/01/14 01:19:19;;;;;;;14.45;1.95;;;;;;;3.71;96.33;101192.41;5057294;28;20025;-73
2021/01/14 01:21:44;;;;;;;9.88;1.70;;;;;;;3.67;96.85;101193.41;5040777;28;20041;-72
2021/01/14 01:24:10;;;;;;;18.83;1.65;;;;;;;3.79;93.51;101187.75;5036528;28;20040;-72
2021/01/14 01:26:36;;;;;;;13.20;2.10;;;;;;;3.70;94.29;101188.03;5053338;28;20125;-72
2021/01/14 01:29:01;;;;;;;14.70;1.83;;;;;;;3.61;95.80;101186.50;5063370;28;20033;-72
2021/01/14 01:31:27;;;;;;;9.50;1.50;;;;;;;3.65;95.53;101205.84;5056406;28;20483;-72
2021/01/14 01:33:54;;;;;;;9.57;1.52;;;;;;;3.65;94.83;101211.16;5057635;28;20391;-71
2021/01/14 01:36:19;;;;;;;12.25;1.90;;;;;;;3.66;93.22;101197.84;5067989;28;20059;-72
2021/01/14 01:38:45;;;;;;;10.52;1.52;;;;;;;3.68;95.00;101208.44;5066507;28;20446;-71
2021/01/14 01:41:10;;;;;;;6.85;1.90;;;;;;;3.50;95.98;101214.25;5079136;28;20090;-72
2021/01/14 01:43:35;;;;;;;10.57;1.98;;;;;;;3.46;95.98;101207.25;5066813;28;20040;-71
2021/01/14 01:46:02;;;;;;;11.10;2.22;;;;;;;3.43;96.05;101215.31;5074730;28;20042;-71
2021/01/14 01:48:29;;;;;;;16.33;3.63;;;;;;;3.48;96.51;101216.94;5062218;28;20771;-71
2021/01/14 01:50:56;;;;;;;12.80;1.73;;;;;;;3.40;95.33;101226.00;5076857;28;20494;-72
2021/01/14 01:53:22;;;;;;;17.50;3.63;;;;;;;3.42;94.36;101210.91;5061380;28;20021;-72
2021/01/14 01:55:49;;;;;;;11.48;1.77;;;;;;;3.42;95.04;101214.44;5070238;28;20040;-72
2021/01/14 01:58:18;;;;;;;19.90;2.45;;;;;;;3.37;95.51;101210.19;5064095;28;20483;-72
2021/01/14 02:00:43;;;;;;;15.13;2.08;;;;;;;3.48;95.31;101216.06;5063469;28;20038;-72
2021/01/14 02:03:11;;;;;;;8.35;1.65;;;;;;;3.30;95.91;101219.22;5062884;28;20043;-72
2021/01/14 02:05:36;;;;;;;8.70;1.50;;;;;;;3.30;96.64;101224.50;5069254;28;20036;-72
2021/01/14 02:08:23;;;;;;;11.70;1.50;;;;;;;3.26;96.01;101231.69;5061471;28;20407;-72
2021/01/14 02:11:05;;;;;;;8.88;1.60;;;;;;;3.25;96.29;101230.81;5066879;28;20029;-72
2021/01/14 02:13:47;;;;;;;16.03;1.80;;;;;;;3.28;94.02;101227.19;5061712;28;20472;-72
2021/01/14 02:16:13;;;;;;;14.00;1.55;;;;;;;3.21;93.70;101237.09;5075452;28;20040;-72
2021/01/14 02:18:41;;;;;;;10.70;1.50;;;;;;;3.13;93.44;101247.06;5067396;28;20031;-71
2021/01/14 02:21:13;;;;;;;8.98;1.77;;;;;;;3.13;92.87;101247.06;5048901;28;20060;-72
2021/01/14 02:23:56;;;;;;;14.18;3.08;;;;;;;3.23;92.00;101248.56;5066183;28;20057;-72
2021/01/14 02:26:29;;;;;;;13.35;1.55;;;;;;;3.11;91.25;101246.22;5071657;28;20055;-72
2021/01/14 02:28:55;;;;;;;;;;;;;;;3.12;91.38;101253.28;5074863;28;20509;-71
2021/01/14 02:31:25;;;;;;;20.20;1.38;;;;;;;3.11;91.96;101254.16;5061362;28;19916;-72
2021/01/14 02:33:52;;;;;;;8.02;1.40;;;;;;;3.10;92.29;101252.44;5073965;28;20029;-72
2021/01/14 02:36:18;;;;;;;11.73;1.50;;;;;;;3.03;93.09;101253.47;5060455;28;20031;-71
2021/01/14 02:38:44;;;;;;;18.67;3.28;;;;;;;3.02;93.21;101258.84;5074580;28;20089;-72
2021/01/14 02:41:09;;;;;;;14.27;2.17;;;;;;;3.03;93.55;101261.44;5062356;28;20059;-72
2021/01/14 02:43:36;;;;;;;10.13;2.08;;;;;;;2.95;93.76;101268.72;5059813;28;20037;-72
2021/01/14 02:46:02;;;;;;;16.20;2.20;;;;;;;2.93;94.18;101275.84;5066927;28;20047;-72
2021/01/14 02:48:35;;;;;;;13.15;1.77;;;;;;;2.95;94.46;101270.50;5069035;28;20032;-72
2021/01/14 02:51:06;;;;;;;16.25;1.65;;;;;;;2.93;95.04;101269.66;5072213;28;20028;-72
2021/01/14 02:53:33;;;;;;;7.55;1.73;;;;;;;2.96;94.95;101283.75;5066250;28;20027;-72
2021/01/14 02:56:01;;;;;;;12.95;1.33;;;;;;;2.94;94.28;101288.19;5059538;28;20036;-71
2021/01/14 02:58:28;;;;;;;10.27;1.27;;;;;;;2.93;94.33;101299.72;5059986;28;20056;-72
2021/01/14 03:00:58;;;;;;;15.70;2.30;;;;;;;2.92;94.71;101300.59;5040021;28;20685;-72
2021/01/14 03:03:23;;;;;;;18.75;2.25;;;;;;;2.93;94.31;101307.66;5068683;28;20548;-72
2021/01/14 03:05:48;;;;;;;6.05;1.50;;;;;;;2.92;94.05;101295.31;5065616;28;20132;-72
2021/01/14 03:08:14;;;;;;;11.52;1.55;;;;;;;2.90;93.63;101297.09;5058827;28;20080;-72
2021/01/14 03:10:39;;;;;;;12.00;1.40;;;;;;;2.87;93.82;101291.03;5059931;28;20094;-72
2021/01/14 03:13:05;;;;;;;7.80;1.50;;;;;;;2.87;93.10;101291.91;5064503;28;20028;-71
2021/01/14 03:15:30;;;;;;;9.20;1.52;;;;;;;2.87;93.11;101291.91;5055611;28;20040;-72
2021/01/14 03:17:55;;;;;;;8.05;1.48;;;;;;;2.92;92.81;101287.34;5065867;28;20036;-71
2021/01/14 03:20:21;;;;;;;10.05;1.45;;;;;;;2.94;91.81;101285.53;5064244;28;20498;-72
2021/01/14 03:22:46;;;;;;;12.95;1.60;;;;;;;2.94;92.17;101285.53;5072977;28;20036;-72
2021/01/14 03:25:12;;;;;;;13.05;2.22;;;;;;;2.85;92.92;101291.06;5072258;28;20115;-71
2021/01/14 03:27:42;;;;;;;7.78;1.42;;;;;;;2.84;93.13;101297.25;5068550;28;20060;-71
2021/01/14 03:30:10;;;;;;;15.45;2.55;;;;;;;2.82;92.77;101293.78;5088001;28;20123;-71
2021/01/14 03:32:35;;;;;;;14.00;1.77;;;;;;;2.82;92.61;101283.19;5061854;28;20047;-72
2021/01/14 03:35:01;;;;;;;7.53;1.70;;;;;;;2.73;92.26;101292.22;5066896;28;20032;-72
2021/01/14 03:37:26;;;;;;;12.68;4.00;;;;;;;2.72;92.31;101292.25;5071333;28;20432;-71
2021/01/14 03:39:52;;;;;;;18.00;3.05;;;;;;;2.71;92.63;101301.13;5073097;28;20206;-72
2021/01/14 03:42:21;;;;;;;14.32;3.33;;;;;;;2.69;92.64;101302.94;5066501;28;20028;-71
2021/01/14 03:44:47;;;;;;;15.05;2.38;;;;;;;2.70;92.43;101309.97;5053287;28;20409;-72
2021/01/14 03:47:13;;;;;;;19.75;3.90;;;;;;;2.68;91.66;101319.72;5061978;28;20032;-71
2021/01/14 03:49:39;;;;;;;17.13;3.13;;;;;;;2.62;92.04;101311.91;5064089;28;20063;-71
2021/01/14 03:52:04;;;;;;;9.13;1.88;;;;;;;2.67;91.66;101316.22;5068020;28;20064;-72
2021/01/14 03:54:30;;;;;;;8.80;2.08;;;;;;;2.60;92.07;101313.72;5070117;28;20060;-72
2021/01/14 03:56:55;;;;;;;18.38;2.47;;;;;;;2.60;92.31;101308.41;5068477;28;20058;-71
2021/01/14 03:59:20;;;;;;;10.40;1.75;;;;;;;2.55;92.01;101310.31;5075083;28;20028;-72
2021/01/14 04:01:46;;;;;;;13.50;1.83;;;;;;;2.54;92.27;101319.16;5063375;28;20375;-72
2021/01/14 04:04:11;;;;;;;15.73;1.50;;;;;;;2.54;92.38;101316.50;5071137;28;20034;-72
2021/01/14 04:06:38;;;;;;;18.00;1.55;;;;;;;2.48;92.36;101327.25;5074873;28;20051;-72
2021/01/14 04:09:05;;;;;;;6.28;1.40;;;;;;;2.51;92.61;101320.13;5061844;28;20507;-72
2021/01/14 04:11:30;;;;;;;9.27;1.50;;;;;;;2.53;92.28;101315.63;5072419;28;20047;-71
2021/01/14 04:13:56;;;;;;;15.93;1.90;;;;;;;2.54;92.34;101321.81;5072784;28;20020;-71
2021/01/14 04:16:21;;;;;;;16.65;1.60;;;;;;;2.46;92.83;101310.53;5074527;28;20112;-71
2021/01/14 04:18:46;;;;;;;10.45;1.38;;;;;;;2.42;93.22;101310.56;5061961;28;20521;-72
2021/01/14 04:21:13;;;;;;;9.57;1.85;;;;;;;2.41;93.56;101297.34;5066944;28;20036;-71
2021/01/14 04:23:38;;;;;;;16.83;1.75;;;;;;;2.37;93.83;101296.56;5065917;28;20063;-72
2021/01/14 04:26:04;;;;;;;16.40;2.65;;;;;;;2.36;94.45;101291.28;5057788;28;20086;-71
2021/01/14 04:28:29;;;;;;;12.00;1.58;;;;;;;2.34;94.15;101280.75;5065697;28;20028;-72
2021/01/14 04:30:55;;;;;;;8.20;1.90;;;;;;;2.33;94.22;101284.28;5066366;28;20115;-72
2021/01/14 04:33:20;;;;;;;8.40;1.27;;;;;;;2.33;94.01;101288.72;5066520;28;20029;-72
2021/01/14 04:35:50;;;;;;;7.90;1.48;;;;;;;2.31;93.87;101296.69;5067640;28;20036;-71
2021/01/14 04:38:17;;;;;;;10.73;1.40;;;;;;;2.29;93.83;101298.50;5055366;28;20038;-71
2021/01/14 04:40:44;;;;;;;9.55;1.65;;;;;;;2.32;93.95;101302.88;5060588;28;20033;-71
2021/01/14 04:43:11;;;;;;;10.73;2.30;;;;;;;2.29;94.04;101308.22;5062870;28;20055;-71
2021/01/14 04:45:39;;;;;;;12.10;2.05;;;;;;;2.30;94.26;101302.88;5066601;28;20111;-72
2021/01/14 04:48:05;;;;;;;14.05;2.58;;;;;;;2.36;94.50;101304.53;5061399;28;20036;-72
2021/01/14 04:50:31;;;;;;;22.35;4.03;;;;;;;2.29;94.48;101303.78;5070202;28;20028;-71
2021/01/14 04:52:59;;;;;;;13.05;1.98;;;;;;;2.28;94.72;101317.97;5064873;28;20025;-71
2021/01/14 04:55:39;;;;;;;14.10;2.70;;;;;;;2.31;94.71;101322.31;5072250;28;20040;-72
2021/01/14 04:58:06;;;;;;;9.50;1.55;;;;;;;2.26;94.32;101335.66;5067324;28;20041;-72
2021/01/14 05:00:38;;;;;;;10.40;1.70;;;;;;;2.26;94.26;101330.34;5063813;28;20021;-72
2021/01/14 05:03:05;;;;;;;15.23;4.07;;;;;;;2.24;94.38;101326.84;5068020;28;20047;-72
2021/01/14 05:05:32;;;;;;;18.23;1.80;;;;;;;2.24;94.86;101331.28;5072192;28;20028;-72
2021/01/14 05:08:08;;;;;;;11.48;1.67;;;;;;;2.25;95.17;101323.31;5067317;28;20024;-71
2021/01/14 05:10:36;;;;;;;12.95;2.05;;;;;;;2.23;95.18;101325.09;5063705;28;20089;-71
2021/01/14 05:13:02;;;;;;;7.60;1.92;;;;;;;2.20;95.33;101319.00;5067731;28;20028;-72
2021/01/14 05:15:28;;;;;;;8.50;2.15;;;;;;;2.18;95.47;101321.69;5071019;28;20056;-71
2021/01/14 05:17:58;;;;;;;10.73;2.00;;;;;;;2.16;95.28;101326.13;5064434;28;20043;-73
2021/01/14 05:20:24;;;;;;;12.35;1.85;;;;;;;2.15;95.44;101326.19;5059889;28;20058;-72
2021/01/14 05:23:01;;;;;;;12.10;1.95;;;;;;;2.16;95.44;101326.13;5075654;28;20085;-71
2021/01/14 05:25:28;;;;;;;8.18;1.63;;;;;;;2.14;95.26;101325.31;5081783;28;20036;-72
2021/01/14 05:27:54;;;;;;;11.63;2.20;;;;;;;2.12;95.54;101320.94;5061759;28;20036;-71
2021/01/14 05:30:22;;;;;;;7.68;1.45;;;;;;;2.11;95.55;101325.34;5065819;28;20039;-71
2021/01/14 05:32:48;;;;;;;30.15;2.60;;;;;;;2.12;95.43;101316.50;5071647;28;20016;-71
2021/01/14 05:35:15;;;;;;;10.05;2.60;;;;;;;2.09;95.84;101319.25;5058488;28;20036;-72
2021/01/14 05:37:42;;;;;;;12.48;2.85;;;;;;;2.08;95.86;101324.56;5058344;28;20084;-71
2021/01/14 05:40:09;;;;;;;12.65;2.10;;;;;;;2.10;96.37;101328.91;5062323;28;20036;-72
2021/01/14 05:42:34;;;;;;;11.40;1.27;;;;;;;2.07;96.45;101321.03;5064795;28;20108;-72
2021/01/14 05:45:00;;;;;;;8.98;1.33;;;;;;;2.05;96.83;101333.41;5064600;28;20131;-72
2021/01/14 05:47:28;;;;;;;13.10;1.90;;;;;;;2.07;96.57;101328.97;5075279;28;20047;-71
2021/01/14 05:50:02;;;;;;;13.80;1.20;;;;;;;2.11;95.75;101343.00;5068645;28;20029;-71
2021/01/14 05:52:32;;;;;;;8.75;2.97;;;;;;;2.06;95.65;101345.75;5074132;28;20040;-72
2021/01/14 05:55:00;;;;;;;17.40;3.15;;;;;;;2.06;95.26;101343.13;5081614;28;20041;-72
2021/01/14 05:57:31;;;;;;;17.83;2.75;;;;;;;2.09;95.08;101343.06;5073677;28;20120;-72
2021/01/14 05:59:59;;;;;;;13.80;1.60;;;;;;;2.17;93.81;101357.00;5072320;28;20033;-72
2021/01/14 06:02:30;;;;;;;8.55;2.08;;;;;;;2.10;93.99;101355.38;5067074;28;20024;-72
2021/01/14 06:04:57;;;;;;;12.60;2.40;;;;;;;2.08;94.49;101351.03;5068005;28;20505;-71
2021/01/14 06:07:24;;;;;;;12.95;2.35;;;;;;;2.09;94.60;101361.59;5060700;28;20078;-72
2021/01/14 06:09:50;;;;;;;17.85;3.97;;;;;;;2.04;94.88;101359.03;5056270;28;20047;-72
2021/01/14 06:12:16;;;;;;;9.18;2.85;;;;;;;2.02;95.32;101363.50;5065549;28;20390;-72
2021/01/14 06:14:42;;;;;;;19.10;3.95;;;;;;;2.01;95.70;101371.47;5074489;28;20028;-72
2021/01/14 06:17:12;;;;;;;12.68;2.53;;;;;;;1.97;96.03;101365.38;5067401;28;20441;-72
2021/01/14 06:19:38;;;;;;;15.55;3.35;;;;;;;1.97;96.52;101375.06;5068515;28;20167;-72
2021/01/14 06:22:04;;;;;;;11.98;2.65;;;;;;;1.95;96.97;101379.50;5045354;28;20033;-72
2021/01/14 06:24:38;;;;;;;13.18;3.08;;;;;;;1.91;97.33;101378.69;5071535;28;20032;-72
2021/01/14 06:27:06;;;;;;;12.77;3.03;;;;;;;1.91;97.57;101376.03;5068499;28;20036;-72
2021/01/14 06:29:34;;;;;;;14.88;2.88;;;;;;;1.88;97.64;101383.16;5064223;28;20024;-73
2021/01/14 06:32:11;;;;;;;13.38;3.40;;;;;;;1.88;98.05;101385.81;5059318;28;20058;-73
2021/01/14 06:34:39;;;;;;;8.27;2.85;;;;;;;1.87;98.29;101395.53;5066750;28;20051;-72
2021/01/14 06:37:08;;;;;;;12.95;3.15;;;;;;;1.87;98.51;101392.00;5078242;28;20031;-71
2021/01/14 06:39:37;;;;;;;12.25;3.05;;;;;;;1.85;98.55;101396.47;5067728;28;20109;-71
2021/01/14 06:42:15;;;;;;;13.95;3.40;;;;;;;1.84;98.76;101392.09;5061944;28;20036;-72
2021/01/14 06:44:48;;;;;;;23.55;6.35;;;;;;;1.84;99.04;101397.38;5039313;28;20062;-71
2021/01/14 06:47:23;;;;;;;;;;;;;;;1.81;99.32;101398.28;5058030;28;20283;-71
2021/01/14 06:50:08;;;;;;;27.25;5.80;;;;;;;1.81;99.43;101398.28;5058451;28;19998;-72
2021/01/14 06:52:42;;;;;;;33.90;8.30;;;;;;;1.80;99.48;101399.19;5073139;28;20046;-71
2021/01/14 06:55:09;;;;;;;30.90;8.32;;;;;;;1.79;99.67;101399.22;5071024;28;20044;-76
2021/01/14 06:57:36;;;;;;;27.25;8.00;;;;;;;1.78;99.73;101397.47;5063418;28;20024;-76
2021/01/14 07:00:04;;;;;;;21.20;5.10;;;;;;;1.78;99.82;101400.13;5058810;28;20415;-73
2021/01/14 07:02:35;;;;;;;15.60;3.70;;;;;;;1.77;99.80;101401.03;5063018;28;20039;-73
2021/01/14 07:05:03;;;;;;;14.10;3.15;;;;;;;1.75;99.86;101394.88;5074115;28;20032;-73
2021/01/14 07:07:36;;;;;;;13.82;3.33;;;;;;;1.75;99.91;101390.47;5068639;28;20117;-73
2021/01/14 07:10:04;;;;;;;10.30;2.47;;;;;;;1.74;99.95;101387.81;5062805;28;20032;-73
2021/01/14 07:12:33;;;;;;;16.42;3.13;;;;;;;1.73;99.88;101392.25;5072663;28;20074;-73
2021/01/14 07:15:09;;;;;;;13.18;2.80;;;;;;;1.73;99.97;101402.81;5071574;28;20029;-73
2021/01/14 07:17:40;;;;;;;12.43;3.13;;;;;;;1.72;100.00;101400.25;5074685;28;20043;-73
2021/01/14 07:20:16;;;;;;;15.88;2.13;;;;;;;1.80;99.66;101398.31;5062782;28;20033;-73
2021/01/14 07:22:49;;;;;;;7.85;2.33;;;;;;;1.75;98.63;101406.34;5059035;28;20123;-73
2021/01/14 07:25:16;;;;;;;11.55;2.50;;;;;;;1.74;98.58;101409.88;5065989;28;20544;-73
2021/01/14 07:27:43;;;;;;;13.27;2.20;;;;;;;1.72;98.60;101410.81;5070190;28;20033;-73
2021/01/14 07:30:10;;;;;;;7.82;2.05;;;;;;;1.72;98.86;101410.81;5069878;28;20540;-73
2021/01/14 07:32:57;;;;;;;13.35;2.38;;;;;;;1.73;99.31;101423.16;5059857;28;20025;-73
2021/01/14 07:35:45;;;;;;;10.38;1.70;;;;;;;1.72;99.51;101424.06;5058065;28;20042;-73
2021/01/14 07:38:16;;;;;;;14.43;1.88;;;;;;;1.71;99.72;101424.94;5074176;28;20025;-73
2021/01/14 07:40:43;;;;;;;11.88;2.33;;;;;;;1.71;99.54;101427.59;5069836;28;20032;-73
2021/01/14 07:43:11;;;;;;;7.72;2.35;;;;;;;1.71;99.65;101430.25;5060088;28;20037;-73
2021/01/14 07:45:38;;;;;;;17.60;3.10;;;;;;;1.71;99.32;101430.25;5066289;28;20500;-73
2021/01/14 07:48:23;;;;;;;15.05;2.47;;;;;;;1.71;99.20;101431.13;5062841;28;20501;-73
2021/01/14 07:50:59;;;;;;;15.52;2.35;;;;;;;1.73;99.17;101433.75;5064866;28;20118;-73
2021/01/14 07:53:26;;;;;;;17.88;2.10;;;;;;;1.72;98.74;101445.22;5064223;28;20031;-73
2021/01/14 07:55:52;;;;;;;14.05;2.60;;;;;;;1.72;98.82;101453.16;5075711;28;20115;-73
2021/01/14 07:58:20;;;;;;;11.48;2.20;;;;;;;1.72;98.61;101451.41;5064656;28;20074;-73
2021/01/14 08:00:59;;;;;;;8.32;2.08;;;;;;;1.75;98.58;101447.81;5069680;28;20036;-73
2021/01/14 08:03:37;;;;;;;12.60;2.00;;;;;;;1.75;98.54;101447.81;5064249;28;20029;-73
2021/01/14 08:06:26;;;;;;;16.80;2.20;;;;;;;1.78;97.54;101442.47;5072002;28;20043;-73
2021/01/14 08:09:06;;;;;;;9.15;2.35;;;;;;;1.81;96.79;101458.28;5056265;28;20043;-73
2021/01/14 08:11:33;;;;;;;13.20;2.38;;;;;;;1.79;97.10;101450.38;5062643;28;20032;-73
2021/01/14 08:14:17;;;;;;;12.90;2.20;;;;;;;1.80;97.52;101457.41;5055593;28;20116;-73
2021/01/14 08:16:50;;;;;;;9.93;1.90;;;;;;;1.82;97.60;101455.63;5070765;28;20043;-73
2021/01/14 08:19:22;;;;;;;7.20;1.90;;;;;;;1.84;97.59;101460.91;5061677;28;20090;-73
2021/01/14 08:21:49;;;;;;;15.60;2.15;;;;;;;1.84;97.69;101463.53;5074010;28;20040;-73
2021/01/14 08:24:37;;;;;;;9.13;3.22;;;;;;;1.87;98.01;101458.19;5063409;28;20445;-73
2021/01/14 08:27:14;;;;;;;14.93;2.42;;;;;;;1.88;98.30;101459.94;5064544;28;20470;-73
2021/01/14 08:29:47;;;;;;;13.93;1.75;;;;;;;1.92;98.30;101458.97;5066428;28;20032;-73
2021/01/14 08:32:41;;;;;;;10.73;1.92;;;;;;;1.93;98.14;101453.66;5074158;28;20035;-73
2021/01/14 08:35:15;;;;;;;7.28;2.40;;;;;;;1.96;98.08;101460.69;5078415;28;20509;-73
2021/01/14 08:37:53;;;;;;;12.93;2.40;;;;;;;2.01;97.43;101466.78;5069066;28;20092;-73
2021/01/14 08:40:24;;;;;;;30.77;4.05;;;;;;;2.01;97.17;101466.78;5058672;28;20036;-73
2021/01/14 08:43:08;;;;;;;9.23;2.17;;;;;;;2.02;97.29;101463.22;5074022;28;20409;-73
2021/01/14 08:45:37;;;;;;;11.02;2.28;;;;;;;2.04;97.59;101472.88;5064003;28;20032;-73
2021/01/14 08:48:06;;;;;;;8.48;2.80;;;;;;;2.07;97.73;101479.91;5061164;28;20029;-73
2021/01/14 08:50:34;;;;;;;19.65;3.28;;;;;;;2.09;97.83;101482.53;5067393;28;20078;-73
2021/01/14 08:53:02;;;;;;;14.10;3.90;;;;;;;2.12;97.03;101493.06;5064533;28;20395;-73
2021/01/14 08:55:28;;;;;;;15.50;2.47;;;;;;;2.11;96.87;101489.53;5068004;28;20033;-72
2021/01/14 08:57:56;;;;;;;18.05;3.30;;;;;;;2.15;97.17;101495.66;5065758;28;20035;-73
2021/01/14 09:00:22;;;;;;;9.93;2.13;;;;;;;2.19;97.10;101492.06;5064505;28;20774;-72
2021/01/14 09:02:48;;;;;;;10.63;2.65;;;;;;;2.20;96.88;101497.34;5063748;28;20052;-72
2021/01/14 09:05:14;;;;;;;7.93;2.75;;;;;;;2.23;96.84;101497.25;5063992;28;20422;-72
2021/01/14 09:07:39;;;;;;;10.68;2.50;;;;;;;2.28;96.62;101502.50;5049431;28;20029;-73
2021/01/14 09:10:08;;;;;;;14.40;3.15;;;;;;;2.32;94.76;101510.38;5072984;28;20082;-75
2021/01/14 09:12:35;;;;;;;20.38;4.90;;;;;;;2.36;93.83;101506.75;5066613;28;20151;-73
2021/01/14 09:15:03;;;;;;;14.38;3.75;;;;;;;2.37;93.76;101505.84;5073583;28;20115;-73
2021/01/14 09:17:30;;;;;;;9.52;2.67;;;;;;;2.48;93.12;101510.06;5066576;28;20107;-73
2021/01/14 09:19:56;;;;;;;9.63;2.20;;;;;;;2.60;90.65;101510.72;5071038;28;20032;-72
2021/01/14 09:22:25;;;;;;;9.80;2.58;;;;;;;2.51;91.06;101528.56;5064659;28;20484;-73
2021/01/14 09:24:51;;;;;;;9.48;2.67;;;;;;;2.60;90.79;101528.38;5075916;28;20059;-72
2021/01/14 09:27:16;;;;;;;13.32;2.80;;;;;;;2.73;89.03;101535.22;5069964;28;20090;-73
2021/01/14 09:29:41;;;;;;;12.48;2.85;;;;;;;2.70;87.95;101537.94;5074471;28;20047;-73
2021/01/14 09:32:13;;;;;;;9.90;2.20;;;;;;;2.61;88.70;101530.13;5070085;28;20029;-73
2021/01/14 09:34:39;;;;;;;12.00;2.15;;;;;;;2.52;89.62;101539.16;5075735;28;20146;-73
2021/01/14 09:37:19;;;;;;;10.93;2.13;;;;;;;2.70;87.04;101532.63;5071590;28;20036;-73
2021/01/14 09:39:47;;;;;;;16.25;2.13;;;;;;;2.62;88.02;101535.41;5068006;28;20033;-73
2021/01/14 09:42:17;;;;;;;8.63;2.08;;;;;;;2.73;86.94;101532.56;5078289;28;20052;-73
2021/01/14 09:44:44;;;;;;;11.32;2.10;;;;;;;2.74;84.00;101535.19;5077382;28;20044;-73
2021/01/14 09:47:10;;;;;;;10.27;2.17;;;;;;;2.74;84.83;101537.84;5070001;28;20032;-73
2021/01/14 09:49:35;;;;;;;12.02;2.10;;;;;;;2.70;85.47;101543.22;5067546;28;20407;-73
2021/01/14 09:52:01;;;;;;;19.85;3.83;;;;;;;2.75;85.01;101541.38;5066734;28;20490;-72
2021/01/14 09:54:27;;;;;;;12.40;2.00;;;;;;;2.86;85.06;101542.03;5069538;28;20035;-73
2021/01/14 09:56:54;;;;;;;9.55;1.85;;;;;;;2.82;85.50;101538.56;5079264;28;20431;-73
2021/01/14 09:59:43;;;;;;;19.60;2.85;;;;;;;2.78;84.17;101547.47;5065679;28;20033;-73
2021/01/14 10:02:27;;;;;;;8.52;1.85;;;;;;;2.73;84.27;101543.16;5070311;28;20097;-73
2021/01/14 10:05:05;;;;;;;13.10;2.50;;;;;;;2.74;86.52;101535.19;5072092;28;20052;-73
2021/01/14 10:07:34;;;;;;;12.35;2.65;;;;;;;2.83;86.66;101535.03;5073687;28;20471;-73
2021/01/14 10:09:59;;;;;;;9.07;2.05;;;;;;;2.89;86.60;101543.75;5076288;28;20027;-73
2021/01/14 10:12:25;;;;;;;7.28;2.10;;;;;;;2.88;86.03;101536.69;5064138;28;20115;-73
2021/01/14 10:15:07;;;;;;;8.82;2.38;;;;;;;2.82;86.85;101527.09;5051718;28;20036;-73
2021/01/14 10:17:36;;;;;;;13.32;2.05;;;;;;;2.92;84.50;101539.25;5067278;28;20402;-73
2021/01/14 10:20:02;;;;;;;9.80;2.75;;;;;;;2.91;84.51;101537.50;5066677;28;20479;-74
2021/01/14 10:22:31;;;;;;;9.98;2.47;;;;;;;2.88;84.66;101542.00;5071241;28;20037;-73
2021/01/14 10:25:07;;;;;;;10.57;2.92;;;;;;;2.82;84.88;101535.03;5066453;28;20055;-73
2021/01/14 10:27:33;;;;;;;10.90;2.95;;;;;;;2.81;85.50;101533.28;5063455;28;20872;-73
2021/01/14 10:29:59;;;;;;;11.40;2.50;;;;;;;2.95;85.12;101541.84;5076575;28;20024;-73
2021/01/14 10:32:25;;;;;;;29.65;7.22;;;;;;;2.91;84.59;101531.31;5060607;28;20471;-77
2021/01/14 10:34:51;;;;;;;13.50;3.13;;;;;;;2.88;84.53;101537.56;5068526;28;20457;-73
2021/01/14 10:37:23;;;;;;;14.35;3.38;;;;;;;2.85;84.66;101537.63;5067364;28;20028;-73
2021/01/14 10:39:53;;;;;;;8.65;3.20;;;;;;;2.89;84.55;101528.72;5069010;28;20040;-73
2021/01/14 10:42:32;;;;;;;17.42;3.58;;;;;;;2.87;84.53;101525.22;5069735;28;20096;-73
2021/01/14 10:45:01;;;;;;;11.05;2.78;;;;;;;2.83;85.20;101528.84;5080129;28;20135;-73
2021/01/14 10:47:28;;;;;;;12.30;3.47;;;;;;;2.82;84.31;101517.38;5063876;28;20035;-73
2021/01/14 10:49:53;;;;;;;12.15;3.70;;;;;;;2.80;85.24;101523.59;5067737;28;20040;-73
2021/01/14 10:52:18;;;;;;;14.52;3.85;;;;;;;2.84;86.27;101525.25;5065786;28;20033;-73
2021/01/14 10:55:00;;;;;;;19.17;4.38;;;;;;;2.87;86.11;101517.25;5064525;28;20032;-73
2021/01/14 10:57:55;;;;;;;20.77;4.72;;;;;;;2.92;87.06;101507.44;5069538;28;20029;-73
2021/01/14 11:00:22;;;;;;;21.75;4.97;;;;;;;3.05;84.21;101508.06;5059675;28;20033;-73
2021/01/14 11:02:59;;;;;;;15.85;4.55;;;;;;;3.05;84.90;101508.06;5069721;28;20041;-73
2021/01/14 11:05:39;;;;;;;23.52;5.95;;;;;;;3.05;84.49;101505.41;5061323;28;20033;-73
2021/01/14 11:08:27;;;;;;;16.10;6.18;;;;;;;3.06;83.56;101504.50;5066598;28;20755;-73
2021/01/14 11:11:02;;;;;;;14.00;5.63;;;;;;;2.94;84.72;101516.25;5074495;28;20031;-73
2021/01/14 11:13:42;;;;;;;17.73;7.90;;;;;;;2.99;84.01;101514.38;5093728;28;20103;-73
2021/01/14 11:16:12;;;;;;;19.98;7.60;;;;;;;3.03;83.83;101510.72;5078210;28;20440;-73
2021/01/14 11:18:40;;;;;;;16.30;7.78;;;;;;;3.07;83.87;101501.81;5070766;28;20032;-73
2021/01/14 11:21:06;;;;;;;21.67;9.38;;;;;;;3.03;84.31;101505.44;5070987;28;20063;-73
2021/01/14 11:23:31;;;;;;;21.40;9.35;;;;;;;3.10;83.83;101509.69;5075611;28;20032;-73
2021/01/14 11:26:00;;;;;;;28.17;9.63;;;;;;;3.07;83.84;101499.19;5074637;28;20475;-73
2021/01/14 11:28:25;;;;;;;21.55;8.82;;;;;;;3.13;84.81;101500.81;5082213;28;20055;-73
2021/01/14 11:30:51;;;;;;;19.23;9.73;;;;;;;3.14;83.66;101500.78;5076837;28;20072;-73
2021/01/14 11:33:16;;;;;;;26.13;10.63;;;;;;;3.04;85.17;101491.25;5067789;28;20079;-73
2021/01/14 11:35:41;;;;;;;22.85;9.60;;;;;;;3.21;84.27;101499.72;5071338;28;20437;-73
2021/01/14 11:38:07;;;;;;;21.13;11.25;;;;;;;3.07;84.55;101496.53;5075934;28;20502;-73